createdAt,value
2023-03-04T00:01:26.168Z,97.80
2023-03-04T00:03:55.175Z,97.80
2023-03-04T00:06:24.306Z,97.90
2023-03-04T00:09:11.459Z,98.50
2023-03-04T00:11:40.481Z,97.20
2023-03-04T00:14:11.103Z,96.90
2023-03-04T00:21:58.112Z,98.40
2023-03-04T00:30:01.505Z,99.10
2023-03-04T00:32:48.925Z,98.00
2023-03-04T00:37:47.124Z,99.50
2023-03-04T00:40:16.426Z,98.80
2023-03-04T00:47:45.142Z,97.90
2023-03-04T00:50:14.468Z,98.60
2023-03-04T00:52:43.506Z,98.70
2023-03-04T00:55:12.618Z,99.10
2023-03-04T00:57:41.692Z,99.50
2023-03-04T01:00:12.007Z,99.40
2023-03-04T01:02:42.828Z,99.90
2023-03-04T01:05:13.921Z,99.10
2023-03-04T01:08:01.378Z,99.70
2023-03-04T01:10:30.481Z,99.90
2023-03-04T01:12:59.944Z,99.20
2023-03-04T01:15:29.319Z,99.90
2023-03-04T01:20:47.072Z,99.30
2023-03-04T01:26:38.477Z,99.80
2023-03-04T01:29:07.361Z,99.60
2023-03-04T01:31:37.041Z,99.90
2023-03-04T01:34:10.068Z,99.90
2023-03-04T01:41:37.394Z,99.90
2023-03-04T01:44:07.176Z,99.90
2023-03-04T01:46:54.814Z,99.90
2023-03-04T01:49:43.763Z,99.90
2023-03-04T01:52:14.764Z,99.90
2023-03-04T01:54:43.868Z,99.90
2023-03-04T01:57:19.466Z,99.90
2023-03-04T01:59:49.432Z,99.90
2023-03-04T02:02:19.328Z,99.90
2023-03-04T02:10:07.067Z,99.90
2023-03-04T02:15:24.227Z,99.90
2023-03-04T02:20:50.096Z,99.90
2023-03-04T02:23:24.874Z,99.90
2023-03-04T02:26:15.631Z,99.90
2023-03-04T02:29:04.669Z,99.90
2023-03-04T02:31:53.841Z,99.90
2023-03-04T02:34:25.152Z,99.90
2023-03-04T02:37:13.153Z,99.90
2023-03-04T03:00:39.900Z,99.90
2023-03-04T03:03:10.465Z,99.90
2023-03-04T03:05:40.851Z,99.90
2023-03-04T03:08:12.572Z,99.90
2023-03-04T03:10:43.132Z,99.90
2023-03-04T03:13:32.312Z,99.90
2023-03-04T03:16:01.599Z,99.90
2023-03-04T03:18:30.532Z,99.90
2023-03-04T03:21:18.520Z,99.90
2023-03-04T03:23:47.586Z,99.90
2023-03-04T03:26:16.705Z,99.90
2023-03-04T03:39:40.275Z,99.90
2023-03-04T03:42:09.307Z,99.90
2023-03-04T03:57:06.840Z,99.90
2023-03-04T03:59:35.889Z,99.90
2023-03-04T06:30:53.564Z,99.90
2023-03-04T06:51:47.677Z,99.90
2023-03-04T06:54:18.196Z,99.90
2023-03-04T06:56:50.727Z,99.90
2023-03-04T06:59:38.307Z,99.90
2023-03-04T07:04:54.225Z,99.90
2023-03-04T07:09:54.101Z,99.90
2023-03-04T07:12:23.262Z,99.90
2023-03-04T07:22:38.632Z,99.90
2023-03-04T07:25:27.778Z,99.50
2023-03-04T07:27:56.861Z,99.20
2023-03-04T07:30:26.033Z,99.30
2023-03-04T07:32:58.648Z,96.60
2023-03-04T07:35:27.851Z,96.60
2023-03-04T07:37:56.899Z,99.00
2023-03-04T07:40:27.526Z,96.00
2023-03-04T07:42:57.544Z,95.90
2023-03-04T07:45:28.847Z,98.30
2023-03-04T07:47:59.249Z,95.10
2023-03-04T07:50:46.881Z,95.10
2023-03-04T07:53:15.988Z,94.70
2023-03-04T07:55:49.926Z,95.40
2023-03-04T08:05:47.812Z,97.20
2023-03-04T08:08:35.325Z,95.10
2023-03-04T08:11:43.042Z,94.40
2023-03-04T08:14:14.114Z,94.10
2023-03-04T08:16:43.375Z,94.10
2023-03-04T08:19:13.829Z,94.10
2023-03-04T08:21:43.011Z,92.80
2023-03-04T08:24:13.116Z,92.60
2023-03-04T08:26:46.213Z,93.10
2023-03-04T08:29:17.771Z,94.20
2023-03-04T08:31:48.882Z,94.30
2023-03-04T08:36:47.690Z,94.80
2023-03-04T08:39:36.347Z,93.60
2023-03-04T08:42:07.102Z,94.40
2023-03-04T08:49:54.046Z,90.80
2023-03-04T08:52:41.177Z,91.10
2023-03-04T08:55:29.389Z,86.70
2023-03-04T08:57:59.950Z,87.10
2023-03-04T09:00:29.221Z,85.90
2023-03-04T09:02:58.539Z,85.20
2023-03-04T09:05:47.299Z,84.80
2023-03-04T09:08:17.146Z,86.30
2023-03-04T09:10:48.860Z,83.70
2023-03-04T09:13:19.494Z,84.70
2023-03-04T09:16:07.136Z,85.60
2023-03-04T09:24:10.475Z,86.90
2023-03-04T09:26:56.521Z,81.80
2023-03-04T09:29:27.232Z,82.20
2023-03-04T09:36:14.815Z,84.10
2023-03-04T09:38:44.326Z,78.20
2023-03-04T09:41:19.912Z,76.50
2023-03-04T09:43:50.049Z,72.70
2023-03-04T09:46:26.410Z,71.20
2023-03-04T09:48:57.787Z,70.90
2023-03-04T09:51:58.746Z,70.60
2023-03-04T09:54:39.193Z,72.80
2023-03-04T09:59:58.293Z,71.40
2023-03-04T10:05:24.001Z,68.90
2023-03-04T10:08:29.731Z,69.10
2023-03-04T10:13:40.619Z,71.10
2023-03-04T10:16:14.157Z,68.80
2023-03-04T10:18:50.512Z,69.90
2023-03-04T10:21:24.999Z,69.30
2023-03-04T10:26:25.867Z,66.30
2023-03-04T10:28:54.784Z,68.20
2023-03-04T10:31:33.336Z,67.40
2023-03-04T10:34:04.628Z,66.90
2023-03-04T10:36:46.339Z,67.90
2023-03-04T10:39:21.112Z,67.10
2023-03-04T10:41:58.522Z,66.50
2023-03-04T10:44:28.238Z,66.70
2023-03-04T10:47:16.616Z,66.20
2023-03-04T10:50:07.512Z,67.70
2023-03-04T10:55:30.354Z,64.30
2023-03-04T10:58:04.813Z,62.40
2023-03-04T11:00:53.156Z,62.50
2023-03-04T11:03:31.432Z,61.80
2023-03-04T11:06:13.344Z,61.70
2023-03-04T11:08:43.171Z,60.00
2023-03-04T11:11:34.728Z,61.10
2023-03-04T11:14:10.235Z,59.90
2023-03-04T11:16:42.018Z,60.70
2023-03-04T11:19:32.690Z,60.20
2023-03-04T11:26:06.366Z,58.30
2023-03-04T11:28:44.415Z,57.60
2023-03-04T11:31:18.125Z,57.70
2023-03-04T11:33:54.907Z,56.80
2023-03-04T11:36:53.072Z,55.70
2023-03-04T11:39:31.386Z,56.00
2023-03-04T11:42:05.077Z,55.90
2023-03-04T11:44:37.279Z,55.40
2023-03-04T11:47:34.890Z,54.40
2023-03-04T11:50:35.374Z,52.90
2023-03-04T11:53:39.919Z,52.00
2023-03-04T11:56:31.737Z,52.90
2023-03-04T11:59:45.378Z,51.30
2023-03-04T12:05:32.157Z,51.20
2023-03-04T12:08:24.955Z,51.10
2023-03-04T12:11:21.029Z,51.20
2023-03-04T12:14:14.215Z,49.90
2023-03-04T12:20:17.761Z,49.10
2023-03-04T12:23:05.735Z,49.30
2023-03-04T12:25:52.119Z,48.70
2023-03-04T12:29:07.912Z,48.40
2023-03-04T12:31:39.654Z,46.50
2023-03-04T12:34:34.271Z,48.40
2023-03-04T12:37:21.138Z,46.80
2023-03-04T12:43:24.192Z,46.40
2023-03-04T12:46:03.342Z,45.40
2023-03-04T12:48:34.660Z,46.10
2023-03-04T12:51:13.480Z,44.60
2023-03-04T12:54:26.318Z,45.80
2023-03-04T12:56:59.197Z,45.50
2023-03-04T12:59:38.919Z,44.80
2023-03-04T13:02:40.441Z,45.80
2023-03-04T13:05:43.832Z,46.00
2023-03-04T13:08:24.993Z,45.30
2023-03-04T13:10:55.016Z,43.90
2023-03-04T13:13:40.620Z,44.40
2023-03-04T13:16:32.860Z,45.50
2023-03-04T13:21:55.149Z,44.80
2023-03-04T13:24:48.000Z,44.20
2023-03-04T13:27:49.710Z,43.90
2023-03-04T13:31:00.941Z,43.30
2023-03-04T13:33:53.467Z,43.20
2023-03-04T13:36:59.463Z,43.70
2023-03-04T13:39:54.784Z,43.70
2023-03-04T13:45:36.446Z,43.00
2023-03-04T13:48:10.285Z,43.50
2023-03-04T13:53:47.735Z,41.80
2023-03-04T13:56:33.932Z,43.20
2023-03-04T13:59:27.721Z,43.50
2023-03-04T14:02:22.256Z,42.50
2023-03-04T14:05:01.063Z,42.10
2023-03-04T14:07:31.727Z,42.90
2023-03-04T14:10:05.010Z,43.20
2023-03-04T14:12:37.810Z,43.20
2023-03-04T14:15:21.736Z,43.00
2023-03-04T14:17:53.348Z,43.50
2023-03-04T14:20:28.780Z,42.70
2023-03-04T14:23:16.554Z,43.40
2023-03-04T14:26:04.340Z,42.70
2023-03-04T14:28:34.992Z,42.90
2023-03-04T14:31:04.140Z,42.00
2023-03-04T14:33:33.391Z,41.40
2023-03-04T14:36:04.084Z,42.10
2023-03-04T14:38:35.490Z,42.60
2023-03-04T14:41:10.040Z,42.20
2023-03-04T14:43:45.119Z,41.30
2023-03-04T14:46:17.084Z,41.40
2023-03-04T14:48:51.093Z,41.90
2023-03-04T14:51:40.201Z,42.20
2023-03-04T14:54:25.345Z,42.30
2023-03-04T14:56:54.391Z,42.00
2023-03-04T14:59:35.759Z,41.90
2023-03-04T15:02:31.367Z,42.30
2023-03-04T15:05:16.832Z,43.20
2023-03-04T15:07:53.986Z,43.20
2023-03-04T15:10:26.009Z,44.20
2023-03-04T15:16:04.141Z,43.60
2023-03-04T15:18:35.025Z,43.10
2023-03-04T15:21:35.666Z,44.10
2023-03-04T15:24:06.442Z,43.80
2023-03-04T15:26:39.436Z,43.50
2023-03-04T15:29:15.470Z,44.70
2023-03-04T15:31:48.561Z,43.80
2023-03-04T15:34:19.399Z,44.70
2023-03-04T15:36:52.100Z,45.10
2023-03-04T15:39:23.605Z,44.60
2023-03-04T15:42:11.614Z,44.80
2023-03-04T15:44:40.753Z,44.70
2023-03-04T15:47:14.157Z,45.30
2023-03-04T15:49:47.703Z,46.10
2023-03-04T15:52:20.801Z,46.40
2023-03-04T15:54:50.866Z,46.10
2023-03-04T15:57:38.850Z,46.10
2023-03-04T16:00:09.341Z,46.00
2023-03-04T16:05:30.781Z,47.60
2023-03-04T16:07:59.994Z,48.80
2023-03-04T16:10:31.342Z,49.30
2023-03-04T16:13:18.374Z,50.00
2023-03-04T16:15:48.841Z,50.40
2023-03-04T16:18:19.511Z,50.20
2023-03-04T16:20:50.371Z,49.80
2023-03-04T16:23:22.655Z,51.60
2023-03-04T17:04:38.081Z,64.60
2023-03-04T17:07:07.192Z,65.60
2023-03-04T17:12:42.444Z,67.30
2023-03-04T17:17:43.442Z,65.60
2023-03-04T17:51:45.487Z,70.50
2023-03-04T18:01:46.157Z,69.60
2023-03-04T18:04:15.905Z,70.60
2023-03-04T18:06:46.715Z,70.60
2023-03-04T18:19:47.157Z,73.30
2023-03-04T18:22:18.056Z,72.30
2023-03-04T18:32:49.415Z,71.60
2023-03-04T18:35:20.648Z,72.60
2023-03-04T18:38:08.916Z,72.90
2023-03-04T18:40:57.476Z,73.50
2023-03-04T18:43:27.364Z,73.80
2023-03-04T18:46:04.901Z,75.00
2023-03-04T18:48:38.511Z,75.60
2023-03-04T18:51:07.783Z,76.10
2023-03-04T18:53:38.236Z,76.30
2023-03-04T18:56:12.544Z,77.00
2023-03-04T18:58:42.996Z,77.50
2023-03-04T19:01:13.643Z,78.00
2023-03-04T19:03:43.590Z,78.50
2023-03-04T19:06:29.927Z,79.70
2023-03-04T19:09:00.452Z,80.50
2023-03-04T19:11:31.789Z,78.60
2023-03-04T19:14:00.798Z,78.50
2023-03-04T19:16:29.910Z,78.80
2023-03-04T19:18:59.046Z,79.70
2023-03-04T19:21:28.051Z,80.30
2023-03-04T19:24:34.019Z,81.10
2023-03-04T19:27:05.610Z,80.50
2023-03-04T19:29:34.948Z,79.80
2023-03-04T19:32:04.007Z,80.40
2023-03-04T19:34:33.067Z,80.40
2023-03-04T19:37:02.178Z,80.70
2023-03-04T19:39:31.219Z,81.40
2023-03-04T19:42:02.476Z,81.70
2023-03-04T19:44:33.299Z,82.40
2023-03-04T19:47:02.446Z,82.60
2023-03-04T19:49:33.621Z,82.90
2023-03-04T19:54:49.809Z,84.00
2023-03-04T19:57:18.747Z,84.70
2023-03-04T20:02:35.801Z,89.20
2023-03-04T20:05:05.218Z,89.90
2023-03-04T20:07:51.378Z,90.50
2023-03-04T20:10:20.895Z,90.70
2023-03-04T20:12:49.877Z,91.60
2023-03-04T20:15:20.798Z,90.50
2023-03-04T20:17:49.799Z,90.50
2023-03-04T20:20:19.217Z,90.90
2023-03-04T20:22:48.406Z,91.10
2023-03-04T20:25:17.439Z,91.20
2023-03-04T20:27:46.545Z,91.70
2023-03-04T20:30:16.970Z,91.90
2023-03-04T20:32:47.540Z,92.20
2023-03-04T20:35:16.700Z,92.20
2023-03-04T20:37:47.482Z,92.00
2023-03-04T20:40:16.562Z,91.70
2023-03-04T20:42:45.519Z,91.80
2023-03-04T20:45:33.085Z,91.80
2023-03-04T20:48:21.139Z,91.60
2023-03-04T20:51:09.107Z,91.80
2023-03-04T20:53:38.103Z,91.70
2023-03-04T20:56:25.308Z,92.10
2023-03-04T20:58:56.047Z,92.30
2023-03-04T21:01:26.409Z,92.80
2023-03-04T21:03:57.322Z,92.90
2023-03-04T21:06:45.535Z,93.00
2023-03-04T21:09:16.615Z,93.10
2023-03-04T21:11:46.038Z,93.50
2023-03-04T21:17:25.664Z,93.80
2023-03-04T21:19:56.753Z,93.70
2023-03-04T21:23:03.459Z,94.10
2023-03-04T21:28:20.578Z,94.30
2023-03-04T21:33:38.575Z,94.30
2023-03-04T21:36:10.792Z,95.00
2023-03-04T21:38:39.880Z,95.90
2023-03-04T21:41:12.556Z,96.00
2023-03-04T21:43:41.768Z,96.00
2023-03-04T21:46:11.483Z,95.90
2023-03-04T21:48:41.083Z,95.70
2023-03-04T21:51:32.086Z,95.40
2023-03-04T21:54:19.976Z,95.40
2023-03-04T23:52:47.875Z,96.90
